Terminal Aerodrome Forecast
Issued by NWS

Home | Current Version | Previous Version | Graphics & Text | Print | Product List | Glossary On
Versions: 1 2 3 4 5 6 7 8 9 10 11 12 13 14 15
628
FTUS43 KGRB 242320
TAFCWA
TAF
KCWA 242320Z 2500/2524 35010G16KT P6SM VCSH BKN060
     FM250300 01005KT P6SM SKC
     FM251400 33008G15KT P6SM SKC
     FM252000 30006KT P6SM SKC
      AMD LTD TO CLD VIS AND WIND 2503/2511=

USA.gov is the U.S. government's official web portal to all federal, state and local government web resources and services.